Time;durP1;ratioP1;P1;durP2;ratioP2;P2;SDS_P1;SDS_P2;PMS_P1;PMS_P2;Temp;Humidity;BMP_temperature;BMP_pressure;BME280_temperature;BME280_humidity;BME280_pressure;Samples;Min_cycle;Max_cycle;Signal;HPM_P1;HPM_P2
2021/03/10 00:01:13;;;;;;;37.20;24.23;;;4.10;99.90;;;;;;5049397;28;20492;-57
2021/03/10 00:03:40;;;;;;;41.10;26.60;;;4.20;99.90;;;;;;5049024;28;20482;-58
2021/03/10 00:06:09;;;;;;;35.00;23.10;;;4.10;99.90;;;;;;5048605;28;20487;-58
2021/03/10 00:08:36;;;;;;;33.93;22.17;;;3.80;99.90;;;;;;5046089;28;20506;-59
2021/03/10 00:11:04;;;;;;;37.20;24.03;;;4.10;99.90;;;;;;5040795;28;20486;-57
2021/03/10 00:13:31;;;;;;;39.17;25.07;;;4.30;99.90;;;;;;5038516;28;21042;-56
2021/03/10 00:15:58;;;;;;;32.60;23.00;;;4.00;99.90;;;;;;5051704;28;20905;-54
2021/03/10 00:18:28;;;;;;;35.60;24.60;;;4.30;99.90;;;;;;5047215;28;20243;-57
2021/03/10 00:20:55;;;;;;;36.17;24.23;;;4.10;99.90;;;;;;5049100;28;20509;-59
2021/03/10 00:23:23;;;;;;;34.17;22.90;;;3.90;99.90;;;;;;5047138;28;20570;-57
2021/03/10 00:25:51;;;;;;;36.00;24.33;;;4.30;99.90;;;;;;5054847;28;20492;-59
2021/03/10 00:28:18;;;;;;;29.17;20.83;;;4.30;99.90;;;;;;5054838;28;20482;-56
2021/03/10 00:30:47;;;;;;;33.53;23.90;;;4.50;99.90;;;;;;5038613;28;20473;-59
2021/03/10 00:33:14;;;;;;;35.00;22.33;;;4.80;99.90;;;;;;5047593;28;21056;-58
2021/03/10 00:35:42;;;;;;;34.50;22.40;;;4.90;99.90;;;;;;5039975;28;20502;-58
2021/03/10 00:38:09;;;;;;;32.47;23.23;;;5.00;99.90;;;;;;5047554;28;20896;-58
2021/03/10 00:40:37;;;;;;;34.77;23.07;;;5.00;99.90;;;;;;5048447;28;20565;-59
2021/03/10 00:43:04;;;;;;;31.63;20.77;;;5.10;99.90;;;;;;5049048;28;20542;-56
2021/03/10 00:45:32;;;;;;;34.07;22.90;;;5.10;99.90;;;;;;5046555;28;20478;-57
2021/03/10 00:47:59;;;;;;;32.63;23.40;;;5.00;99.90;;;;;;5051111;28;20235;-58
2021/03/10 00:50:29;;;;;;;31.10;22.97;;;4.90;99.90;;;;;;5067425;28;20552;-57
2021/03/10 00:52:56;;;;;;;33.77;23.07;;;4.50;99.90;;;;;;5068222;28;20531;-57
2021/03/10 00:55:24;;;;;;;30.80;22.23;;;4.20;99.90;;;;;;5049253;28;20509;-57
2021/03/10 00:57:52;;;;;;;33.03;23.30;;;4.00;99.90;;;;;;5026742;28;20478;-58
2021/03/10 01:00:22;;;;;;;33.57;23.90;;;4.10;99.90;;;;;;5028635;28;20499;-58
2021/03/10 01:02:49;;;;;;;32.97;22.40;;;4.00;99.90;;;;;;5028328;28;20556;-59
2021/03/10 01:05:17;;;;;;;37.00;25.90;;;3.90;99.90;;;;;;5030473;28;20772;-57
2021/03/10 01:07:44;;;;;;;33.70;23.37;;;4.00;99.90;;;;;;5029025;28;20539;-58
2021/03/10 01:10:13;;;;;;;35.63;23.53;;;4.20;99.90;;;;;;5032868;28;20631;-58
2021/03/10 01:12:41;;;;;;;36.43;26.27;;;4.70;99.90;;;;;;5033019;28;20986;-58
2021/03/10 01:15:16;;;;;;;29.23;22.63;;;4.80;99.90;;;;;;5039641;28;20483;-56
2021/03/10 01:17:48;;;;;;;30.70;23.10;;;4.90;99.90;;;;;;5046296;28;20475;-59
2021/03/10 01:20:18;;;;;;;32.73;23.90;;;4.70;99.90;;;;;;5047860;28;20482;-57
2021/03/10 01:22:46;;;;;;;35.73;23.77;;;4.60;99.90;;;;;;5047848;28;20259;-58
2021/03/10 01:25:14;;;;;;;31.23;22.20;;;4.50;99.90;;;;;;5039349;28;20530;-58
2021/03/10 01:27:42;;;;;;;34.27;24.83;;;4.50;99.90;;;;;;5031932;28;20538;-59
2021/03/10 01:30:14;;;;;;;33.50;21.73;;;4.70;99.90;;;;;;5039240;28;20955;-54
2021/03/10 01:32:42;;;;;;;37.70;26.37;;;4.60;99.90;;;;;;5038393;28;20474;-57
2021/03/10 01:35:14;;;;;;;30.40;22.10;;;4.30;99.90;;;;;;5044546;28;21046;-59
2021/03/10 01:37:41;;;;;;;37.80;24.97;;;4.40;99.90;;;;;;5057743;28;20480;-58
2021/03/10 01:40:12;;;;;;;31.83;24.13;;;4.60;99.90;;;;;;5067602;28;20485;-57
2021/03/10 01:42:39;;;;;;;32.80;23.33;;;4.60;99.90;;;;;;5067437;28;20483;-57
2021/03/10 01:45:09;;;;;;;31.83;23.57;;;4.70;99.90;;;;;;5067196;28;20477;-59
2021/03/10 01:47:41;;;;;;;38.17;24.97;;;4.80;99.90;;;;;;5065974;28;20259;-58
2021/03/10 01:50:10;;;;;;;31.77;22.37;;;4.90;99.90;;;;;;5067371;28;20490;-56
2021/03/10 01:52:38;;;;;;;36.23;25.50;;;5.10;99.90;;;;;;5066927;28;20558;-57
2021/03/10 01:55:07;;;;;;;36.03;26.40;;;5.10;99.90;;;;;;5067352;28;20321;-58
2021/03/10 01:57:35;;;;;;;32.80;24.50;;;4.60;99.90;;;;;;5065947;28;20484;-58
2021/03/10 02:00:06;;;;;;;32.90;22.27;;;4.20;99.90;;;;;;5069457;28;20484;-58
2021/03/10 02:02:40;;;;;;;31.57;23.80;;;4.50;99.90;;;;;;5064779;28;20477;-59
2021/03/10 02:05:09;;;;;;;35.60;23.27;;;4.70;99.90;;;;;;5053275;28;20490;-59
2021/03/10 02:07:49;;;;;;;35.97;25.23;;;5.00;99.90;;;;;;5034709;28;20894;-57
2021/03/10 02:10:24;;;;;;;26.43;19.90;;;4.60;99.90;;;;;;5033648;28;20561;-58
2021/03/10 02:13:00;;;;;;;31.03;20.27;;;4.80;99.90;;;;;;5045611;28;20485;-56
2021/03/10 02:15:38;;;;;;;31.67;24.10;;;4.90;99.90;;;;;;5049244;28;20478;-59
2021/03/10 02:18:10;;;;;;;28.87;22.00;;;4.90;99.90;;;;;;5030386;28;20852;-56
2021/03/10 02:20:40;;;;;;;27.93;21.27;;;4.40;99.90;;;;;;5030886;28;20471;-55
2021/03/10 02:23:42;;;;;;;27.40;19.90;;;4.20;99.90;;;;;;5038993;28;20487;-57
2021/03/10 02:26:28;;;;;;;30.73;19.70;;;4.20;99.90;;;;;;5007921;28;20980;-57
2021/03/10 02:29:03;;;;;;;27.70;20.43;;;4.50;99.90;;;;;;5020477;28;20479;-58
2021/03/10 02:31:33;;;;;;;30.70;21.47;;;4.80;99.90;;;;;;5025587;28;20558;-58
2021/03/10 02:34:01;;;;;;;26.27;19.87;;;5.00;99.90;;;;;;5016584;28;20476;-55
2021/03/10 02:36:30;;;;;;;29.97;21.67;;;5.10;99.90;;;;;;5010170;28;20882;-58
2021/03/10 02:39:01;;;;;;;33.40;23.13;;;5.00;99.90;;;;;;5017690;28;20483;-59
2021/03/10 02:41:31;;;;;;;31.43;21.90;;;5.00;99.90;;;;;;5050591;28;20478;-58
2021/03/10 02:44:00;;;;;;;32.23;22.23;;;5.00;99.90;;;;;;5050958;28;20240;-58
2021/03/10 02:46:28;;;;;;;31.20;22.67;;;5.00;99.90;;;;;;5048302;28;20525;-58
2021/03/10 02:48:56;;;;;;;30.20;21.90;;;5.00;99.90;;;;;;5049678;28;20489;-57
2021/03/10 02:51:24;;;;;;;37.03;25.10;;;4.90;99.90;;;;;;5037204;28;20536;-59
2021/03/10 02:53:52;;;;;;;31.13;20.70;;;4.60;99.90;;;;;;5030693;28;20517;-56
2021/03/10 02:56:21;;;;;;;29.70;21.90;;;4.70;99.90;;;;;;5029854;28;20887;-59
2021/03/10 02:58:48;;;;;;;29.97;21.50;;;4.90;99.90;;;;;;5043930;28;20503;-57
2021/03/10 03:01:16;;;;;;;32.70;22.83;;;5.20;99.90;;;;;;5062113;28;20501;-58
2021/03/10 03:03:44;;;;;;;30.43;21.47;;;5.30;99.90;;;;;;5046516;28;20482;-58
2021/03/10 03:06:16;;;;;;;29.40;21.70;;;5.20;99.90;;;;;;5037724;28;20570;-58
2021/03/10 03:08:43;;;;;;;33.07;22.27;;;5.10;99.90;;;;;;5039886;28;20501;-57
2021/03/10 03:11:13;;;;;;;31.83;22.33;;;5.20;99.90;;;;;;5032835;28;20494;-58
2021/03/10 03:13:41;;;;;;;28.87;21.30;;;5.30;99.90;;;;;;5030021;28;20291;-58
2021/03/10 03:16:09;;;;;;;29.60;21.13;;;5.40;99.90;;;;;;5030369;28;20532;-58
2021/03/10 03:18:41;;;;;;;29.03;20.77;;;5.10;99.90;;;;;;5028731;28;20556;-59
2021/03/10 03:21:08;;;;;;;32.47;23.93;;;5.00;99.90;;;;;;5034674;28;20506;-58
2021/03/10 03:23:39;;;;;;;29.40;21.57;;;4.70;99.90;;;;;;5031397;28;20965;-57
2021/03/10 03:26:07;;;;;;;31.67;22.97;;;4.30;99.90;;;;;;5028327;28;20478;-58
2021/03/10 03:28:35;;;;;;;33.97;24.10;;;4.10;99.90;;;;;;5030280;28;20496;-58
2021/03/10 03:31:04;;;;;;;31.27;22.80;;;3.90;99.90;;;;;;5042182;28;20903;-58
2021/03/10 03:33:31;;;;;;;36.73;26.00;;;4.00;99.90;;;;;;5029689;28;20479;-57
2021/03/10 03:36:00;;;;;;;35.70;24.47;;;4.50;99.90;;;;;;5029651;28;21238;-58
2021/03/10 03:38:29;;;;;;;32.57;23.23;;;4.80;99.90;;;;;;5043378;28;20528;-58
2021/03/10 03:40:57;;;;;;;34.20;25.37;;;4.70;99.90;;;;;;5049912;28;20474;-59
2021/03/10 03:43:25;;;;;;;31.10;22.97;;;4.60;99.90;;;;;;5049718;28;20485;-57
2021/03/10 03:45:54;;;;;;;34.17;24.43;;;4.60;99.90;;;;;;5048729;28;20485;-57
2021/03/10 03:48:26;;;;;;;31.27;23.13;;;4.70;99.90;;;;;;5051609;28;20493;-57
2021/03/10 03:50:54;;;;;;;27.97;22.07;;;4.80;99.90;;;;;;5064459;28;20980;-57
2021/03/10 03:53:22;;;;;;;30.67;21.90;;;4.80;99.90;;;;;;5069568;28;21075;-58
2021/03/10 03:55:49;;;;;;;31.30;21.90;;;4.70;99.90;;;;;;5068975;28;20523;-59
2021/03/10 03:58:17;;;;;;;30.77;23.40;;;4.60;99.90;;;;;;5050433;28;20560;-58
2021/03/10 04:00:44;;;;;;;33.90;24.67;;;4.50;99.90;;;;;;5043010;28;20519;-58
2021/03/10 04:03:11;;;;;;;32.90;25.13;;;4.40;99.90;;;;;;5036072;28;20551;-58
2021/03/10 04:05:39;;;;;;;32.00;23.47;;;3.90;99.90;;;;;;5030391;28;20483;-58
2021/03/10 04:08:09;;;;;;;31.73;23.33;;;4.00;99.90;;;;;;5031989;28;20510;-58
2021/03/10 04:10:40;;;;;;;31.23;22.80;;;4.10;99.90;;;;;;5048116;28;21056;-57
2021/03/10 04:13:08;;;;;;;34.13;24.67;;;4.10;99.90;;;;;;5025364;28;20498;-58
2021/03/10 04:15:36;;;;;;;36.47;26.17;;;4.10;99.90;;;;;;5029185;28;20478;-54
2021/03/10 04:18:05;;;;;;;28.47;21.93;;;3.90;99.90;;;;;;5040140;28;20486;-58
2021/03/10 04:20:32;;;;;;;35.07;26.37;;;3.90;99.90;;;;;;5043823;28;20535;-58
2021/03/10 04:23:00;;;;;;;29.87;21.30;;;3.80;99.90;;;;;;5045439;28;20457;-58
2021/03/10 04:25:27;;;;;;;35.53;25.90;;;3.80;99.90;;;;;;5048292;28;20521;-58
2021/03/10 04:27:55;;;;;;;36.77;25.23;;;3.50;99.90;;;;;;5036433;28;20487;-54
2021/03/10 04:30:24;;;;;;;33.50;25.40;;;3.40;99.90;;;;;;5049109;28;20392;-56
2021/03/10 04:32:51;;;;;;;33.00;21.97;;;3.10;99.90;;;;;;5029050;28;20266;-58
2021/03/10 04:35:21;;;;;;;36.93;25.80;;;3.30;99.90;;;;;;5028886;28;20831;-58
2021/03/10 04:37:49;;;;;;;31.83;24.53;;;3.50;99.90;;;;;;5036197;28;20527;-57
2021/03/10 04:40:18;;;;;;;34.20;24.97;;;3.00;99.90;;;;;;5048143;28;20896;-57
2021/03/10 04:42:46;;;;;;;35.63;24.93;;;2.80;99.90;;;;;;5033687;28;21423;-58
2021/03/10 04:45:15;;;;;;;35.03;25.17;;;2.60;99.90;;;;;;5028951;28;20502;-55
2021/03/10 04:47:43;;;;;;;33.83;24.10;;;2.50;99.90;;;;;;5027338;28;20478;-57
2021/03/10 04:50:13;;;;;;;33.97;25.33;;;2.50;99.90;;;;;;5028398;28;21020;-58
2021/03/10 04:52:41;;;;;;;34.63;24.47;;;2.60;99.90;;;;;;5027985;28;20480;-57
2021/03/10 04:55:10;;;;;;;38.50;26.63;;;2.60;99.90;;;;;;5029851;28;20900;-55
2021/03/10 04:57:39;;;;;;;34.97;25.90;;;2.80;99.90;;;;;;5058486;28;20809;-57
2021/03/10 05:00:09;;;;;;;30.40;22.33;;;2.70;99.90;;;;;;5042283;28;20475;-58
2021/03/10 05:02:38;;;;;;;40.47;27.67;;;2.60;99.90;;;;;;5039019;28;20906;-59
2021/03/10 05:05:09;;;;;;;34.97;23.53;;;2.70;99.90;;;;;;5027699;28;20479;-58
2021/03/10 05:07:37;;;;;;;37.40;26.87;;;3.20;99.90;;;;;;5042563;28;20842;-59
2021/03/10 05:10:07;;;;;;;42.63;29.23;;;3.00;99.90;;;;;;5039522;28;20820;-58
2021/03/10 05:12:35;;;;;;;36.90;26.57;;;2.70;99.90;;;;;;5032317;28;20969;-57
2021/03/10 05:15:08;;;;;;;37.57;26.33;;;2.50;99.90;;;;;;5051378;28;20490;-58
2021/03/10 05:17:37;;;;;;;38.77;27.00;;;2.40;99.90;;;;;;5017059;28;20479;-59
2021/03/10 05:20:08;;;;;;;36.23;26.10;;;2.30;99.90;;;;;;5031442;28;20515;-58
2021/03/10 05:22:44;;;;;;;52.43;36.70;;;2.60;99.90;;;;;;5040696;28;20569;-57
2021/03/10 05:25:12;;;;;;;47.33;34.73;;;2.50;99.90;;;;;;5036316;28;20479;-58
2021/03/10 05:27:40;;;;;;;45.50;34.10;;;2.30;99.90;;;;;;5047226;28;20561;-55
2021/03/10 05:30:30;;;;;;;40.90;28.17;;;2.20;99.90;;;;;;5047666;28;20569;-55
2021/03/10 05:33:06;;;;;;;47.40;32.00;;;2.40;99.90;;;;;;5046737;28;20508;-57
2021/03/10 05:35:36;;;;;;;56.07;33.73;;;2.90;99.90;;;;;;5040554;28;20484;-58
2021/03/10 05:38:04;;;;;;;53.40;34.07;;;3.30;99.90;;;;;;5020492;28;20479;-58
2021/03/10 05:40:37;;;;;;;49.90;31.00;;;3.20;99.90;;;;;;5027980;28;20459;-56
2021/03/10 05:43:06;;;;;;;50.80;33.10;;;3.30;99.90;;;;;;5024691;28;21008;-58
2021/03/10 05:45:33;;;;;;;50.10;32.53;;;3.40;99.90;;;;;;5035676;28;20491;-57
2021/03/10 05:48:01;;;;;;;52.83;34.00;;;3.30;99.90;;;;;;5030736;28;21014;-57
2021/03/10 05:50:29;;;;;;;41.07;30.07;;;3.20;99.90;;;;;;5040591;28;20511;-58
2021/03/10 05:52:58;;;;;;;45.77;31.70;;;2.80;99.90;;;;;;5031521;28;20587;-57
2021/03/10 05:55:26;;;;;;;43.17;30.43;;;2.90;99.90;;;;;;5044807;28;20570;-57
2021/03/10 05:57:54;;;;;;;40.67;29.10;;;2.80;99.90;;;;;;5035937;28;20488;-58
2021/03/10 06:00:22;;;;;;;39.00;27.83;;;2.70;99.90;;;;;;5035765;28;20486;-57
2021/03/10 06:02:52;;;;;;;41.40;27.77;;;2.50;99.90;;;;;;5030433;28;20490;-57
2021/03/10 06:05:22;;;;;;;43.07;26.10;;;2.40;99.90;;;;;;5028694;28;20521;-57
2021/03/10 06:08:01;;;;;;;53.00;32.73;;;2.60;99.90;;;;;;5029760;28;20543;-58
2021/03/10 06:10:38;;;;;;;62.97;35.53;;;3.00;99.90;;;;;;5030495;28;21007;-58
2021/03/10 06:13:05;;;;;;;67.70;38.03;;;3.30;99.90;;;;;;5028833;28;20475;-58
2021/03/10 06:15:40;;;;;;;66.73;41.67;;;3.70;99.90;;;;;;5041469;28;20870;-59
2021/03/10 06:18:08;;;;;;;57.07;35.50;;;3.20;99.90;;;;;;5028346;28;20546;-54
2021/03/10 06:20:35;;;;;;;63.37;37.20;;;3.10;99.90;;;;;;5045616;28;20982;-57
2021/03/10 06:23:15;;;;;;;63.20;38.67;;;3.40;99.90;;;;;;5033219;28;20495;-58
2021/03/10 06:25:43;;;;;;;58.70;34.13;;;3.00;99.90;;;;;;5041204;28;20469;-57
2021/03/10 06:28:10;;;;;;;54.20;37.27;;;3.50;99.90;;;;;;5029943;28;20491;-57
2021/03/10 06:30:41;;;;;;;50.83;34.47;;;3.50;99.90;;;;;;5033713;28;20892;-56
2021/03/10 06:33:21;;;;;;;41.80;31.63;;;3.20;99.90;;;;;;5029106;28;20498;-56
2021/03/10 06:35:49;;;;;;;40.73;29.23;;;3.10;99.90;;;;;;5025653;28;20564;-57
2021/03/10 06:38:20;;;;;;;44.90;31.37;;;3.00;99.90;;;;;;5025127;28;20560;-58
2021/03/10 06:40:50;;;;;;;45.20;29.23;;;3.20;99.90;;;;;;5010109;28;20573;-58
2021/03/10 06:43:17;;;;;;;44.53;31.33;;;3.40;99.90;;;;;;5026020;28;20913;-57
2021/03/10 06:45:45;;;;;;;50.53;32.50;;;3.10;99.90;;;;;;5027175;28;20482;-58
2021/03/10 06:48:18;;;;;;;44.97;29.67;;;2.90;99.90;;;;;;5030145;28;20469;-55
2021/03/10 06:50:46;;;;;;;46.40;32.13;;;3.10;99.90;;;;;;5040033;28;20472;-58
2021/03/10 06:53:13;;;;;;;41.87;29.97;;;3.00;99.90;;;;;;5042913;28;20512;-58
2021/03/10 06:55:44;;;;;;;38.33;28.83;;;2.90;99.90;;;;;;5037246;28;20539;-55
2021/03/10 06:58:23;;;;;;;44.33;28.87;;;2.90;99.90;;;;;;5041055;28;20532;-54
2021/03/10 07:01:00;;;;;;;44.03;30.10;;;2.80;99.90;;;;;;5064006;28;20485;-54
2021/03/10 07:03:31;;;;;;;39.07;28.13;;;2.80;99.90;;;;;;5043717;28;20491;-57
2021/03/10 07:06:00;;;;;;;44.20;28.37;;;2.80;99.90;;;;;;5049400;28;20510;-58
2021/03/10 07:08:29;;;;;;;42.83;29.77;;;2.80;99.90;;;;;;5039458;28;20566;-57
2021/03/10 07:10:57;;;;;;;41.67;29.40;;;2.80;99.90;;;;;;5034514;28;20591;-56
2021/03/10 07:13:25;;;;;;;41.77;28.97;;;2.80;99.90;;;;;;5042280;28;20484;-58
2021/03/10 07:15:53;;;;;;;42.17;28.40;;;2.80;99.90;;;;;;5041378;28;20479;-56
2021/03/10 07:18:25;;;;;;;40.30;28.90;;;2.80;99.90;;;;;;5043604;28;20483;-56
2021/03/10 07:20:53;;;;;;;38.10;27.17;;;2.80;99.90;;;;;;5055083;28;20487;-56
2021/03/10 07:23:23;;;;;;;41.33;27.43;;;2.80;99.90;;;;;;5052945;28;20698;-58
2021/03/10 07:25:52;;;;;;;39.57;27.97;;;2.90;99.90;;;;;;5043358;28;20542;-53
2021/03/10 07:28:30;;;;;;;39.37;27.30;;;2.90;99.90;;;;;;5044905;28;20474;-54
2021/03/10 07:30:58;;;;;;;39.80;28.10;;;2.90;99.90;;;;;;5047530;28;20902;-58
2021/03/10 07:33:26;;;;;;;39.03;28.10;;;2.90;99.90;;;;;;5058743;28;20508;-57
2021/03/10 07:35:56;;;;;;;38.90;27.27;;;2.90;99.90;;;;;;5051578;28;20834;-56
2021/03/10 07:38:26;;;;;;;43.17;28.03;;;2.90;99.90;;;;;;5046545;28;20890;-57
2021/03/10 07:41:02;;;;;;;41.27;28.17;;;3.00;99.90;;;;;;5049153;28;20535;-57
2021/03/10 07:43:39;;;;;;;40.80;29.07;;;3.00;99.90;;;;;;5048461;28;20850;-58
2021/03/10 07:46:24;;;;;;;40.37;28.63;;;3.10;99.90;;;;;;5053231;28;20537;-56
2021/03/10 07:48:52;;;;;;;43.67;29.30;;;3.20;99.90;;;;;;5053330;28;20531;-58
2021/03/10 07:51:28;;;;;;;39.37;27.50;;;3.20;99.90;;;;;;5032254;28;20470;-57
2021/03/10 07:53:56;;;;;;;40.33;28.03;;;3.20;99.90;;;;;;5039019;28;20872;-59
2021/03/10 07:56:25;;;;;;;39.17;28.63;;;3.30;99.90;;;;;;5040500;28;21056;-57
2021/03/10 07:58:54;;;;;;;38.40;27.73;;;3.30;99.90;;;;;;5037302;28;20482;-58
2021/03/10 08:01:21;;;;;;;39.70;28.00;;;3.30;99.90;;;;;;5031268;28;21063;-59
2021/03/10 08:03:48;;;;;;;37.40;27.00;;;3.30;99.90;;;;;;5045237;28;20490;-59
2021/03/10 08:06:16;;;;;;;40.67;28.47;;;3.30;99.90;;;;;;5045202;28;20905;-59
2021/03/10 08:08:44;;;;;;;39.13;27.73;;;3.40;99.90;;;;;;5037472;28;20840;-58
2021/03/10 08:11:15;;;;;;;39.60;28.47;;;3.40;99.90;;;;;;5036160;28;21058;-57
2021/03/10 08:13:43;;;;;;;37.67;26.80;;;3.40;99.90;;;;;;5038612;28;20528;-56
2021/03/10 08:16:12;;;;;;;39.07;27.77;;;3.50;99.90;;;;;;5046702;28;20564;-58
2021/03/10 08:18:47;;;;;;;36.23;27.43;;;3.60;99.90;;;;;;5045345;28;20469;-56
2021/03/10 08:21:18;;;;;;;39.67;27.07;;;3.60;99.90;;;;;;5044212;28;21061;-59
2021/03/10 08:23:46;;;;;;;39.53;28.53;;;3.60;99.90;;;;;;5041653;28;20485;-58
2021/03/10 08:26:18;;;;;;;39.00;27.37;;;3.70;99.90;;;;;;5033773;28;20487;-57
2021/03/10 08:28:45;;;;;;;40.63;28.03;;;3.70;99.90;;;;;;5042315;28;20484;-56
2021/03/10 08:31:48;;;;;;;40.83;28.37;;;3.70;99.90;;;;;;5035566;28;20548;-58
2021/03/10 08:34:35;;;;;;;39.30;27.93;;;3.80;99.90;;;;;;5029355;28;20563;-59
2021/03/10 08:37:05;;;;;;;44.23;29.47;;;4.00;99.90;;;;;;5040272;28;20471;-59
2021/03/10 08:39:32;;;;;;;41.17;28.67;;;4.00;99.90;;;;;;5013454;28;20479;-58
2021/03/10 08:42:00;;;;;;;40.00;29.03;;;4.00;99.90;;;;;;5023000;28;20302;-57
2021/03/10 08:44:28;;;;;;;42.53;30.17;;;4.00;99.90;;;;;;5015947;28;20488;-58
2021/03/10 08:46:57;;;;;;;42.00;28.67;;;4.10;99.90;;;;;;5016587;28;20601;-59
2021/03/10 08:49:29;;;;;;;42.10;29.37;;;4.10;99.90;;;;;;5024534;28;20487;-56
2021/03/10 08:52:10;;;;;;;38.77;28.33;;;4.20;99.90;;;;;;5020286;28;20549;-58
2021/03/10 08:54:57;;;;;;;41.43;28.97;;;4.30;99.90;;;;;;5034538;28;20504;-58
2021/03/10 08:57:28;;;;;;;42.37;29.60;;;4.40;99.90;;;;;;5024954;28;20471;-58
2021/03/10 08:59:55;;;;;;;41.23;29.57;;;4.40;99.90;;;;;;5023725;28;20490;-58
2021/03/10 09:02:28;;;;;;;44.20;28.53;;;4.30;99.90;;;;;;5010080;28;20490;-58
2021/03/10 09:04:57;;;;;;;44.13;30.30;;;4.40;99.90;;;;;;5029250;28;20545;-57
2021/03/10 09:07:25;;;;;;;44.03;28.80;;;4.40;99.90;;;;;;5032588;28;20537;-58
2021/03/10 09:09:58;;;;;;;48.40;30.93;;;4.30;99.90;;;;;;5033066;28;20510;-59
2021/03/10 09:12:28;;;;;;;47.30;30.80;;;4.20;99.90;;;;;;5038893;28;20579;-58
2021/03/10 09:15:10;;;;;;;48.03;30.87;;;4.30;99.90;;;;;;5052599;28;20290;-58
2021/03/10 09:17:42;;;;;;;44.27;29.87;;;4.30;99.90;;;;;;5040113;28;20478;-59
2021/03/10 09:20:25;;;;;;;47.57;30.10;;;4.40;99.90;;;;;;5049560;28;20625;-59
2021/03/10 09:23:00;;;;;;;46.53;30.63;;;4.40;99.90;;;;;;5029471;28;20521;-59
2021/03/10 09:25:42;;;;;;;49.57;31.27;;;4.50;99.90;;;;;;5025737;28;20474;-58
2021/03/10 09:28:17;;;;;;;48.27;31.13;;;4.50;99.90;;;;;;5027409;28;20482;-57
2021/03/10 09:31:12;;;;;;;44.63;30.03;;;4.60;99.90;;;;;;5042031;28;21008;-58
2021/03/10 09:33:42;;;;;;;47.83;29.23;;;4.70;99.90;;;;;;5037810;28;20534;-59
2021/03/10 09:36:24;;;;;;;39.83;27.57;;;4.80;99.90;;;;;;5038050;28;20504;-59
2021/03/10 09:38:54;;;;;;;41.20;28.90;;;4.90;99.90;;;;;;5054024;28;20235;-58
2021/03/10 09:41:31;;;;;;;40.57;27.90;;;4.90;99.90;;;;;;5053518;28;20528;-58
2021/03/10 09:44:06;;;;;;;40.60;28.30;;;5.00;99.90;;;;;;5044490;28;21004;-59
2021/03/10 09:46:40;;;;;;;39.50;26.47;;;5.00;99.90;;;;;;5037222;28;20322;-58
2021/03/10 09:49:10;;;;;;;38.20;26.67;;;5.00;99.90;;;;;;5037113;28;20235;-57
2021/03/10 09:51:46;;;;;;;34.40;25.20;;;5.00;99.90;;;;;;5031158;28;20986;-59
2021/03/10 09:54:15;;;;;;;35.93;25.00;;;5.00;99.90;;;;;;5032371;28;20255;-59
2021/03/10 09:56:50;;;;;;;35.50;25.67;;;5.20;99.90;;;;;;5051160;28;20519;-58
2021/03/10 09:59:31;;;;;;;37.20;25.47;;;5.20;99.90;;;;;;5047288;28;20254;-58
2021/03/10 10:02:03;;;;;;;32.87;23.57;;;5.30;99.90;;;;;;5028534;28;20393;-59
2021/03/10 10:04:42;;;;;;;33.43;24.83;;;5.40;99.90;;;;;;5030176;28;20633;-57
2021/03/10 10:07:12;;;;;;;32.43;24.13;;;5.50;99.90;;;;;;5040757;28;20484;-58
2021/03/10 10:09:51;;;;;;;35.83;25.03;;;5.70;99.90;;;;;;5047822;28;20240;-55
2021/03/10 10:12:43;;;;;;;31.87;23.77;;;5.60;99.90;;;;;;5044999;28;20220;-57
2021/03/10 10:15:16;;;;;;;34.10;23.73;;;5.70;99.90;;;;;;5048506;28;20254;-59
2021/03/10 10:17:50;;;;;;;35.10;24.27;;;5.80;99.90;;;;;;5053343;28;20782;-59
2021/03/10 10:20:23;;;;;;;32.43;24.20;;;5.80;99.90;;;;;;5040518;28;20289;-58
2021/03/10 10:22:52;;;;;;;29.70;22.03;;;5.80;99.90;;;;;;5042014;28;20227;-58
2021/03/10 10:25:27;;;;;;;34.00;23.10;;;5.80;99.90;;;;;;5036249;28;20240;-58
2021/03/10 10:27:54;;;;;;;32.07;23.67;;;5.90;99.90;;;;;;5050174;28;20629;-58
2021/03/10 10:30:22;;;;;;;35.53;24.00;;;5.90;99.90;;;;;;5049080;28;20643;-58
2021/03/10 10:32:51;;;;;;;31.70;22.30;;;6.10;99.90;;;;;;5049306;28;20293;-58
2021/03/10 10:35:22;;;;;;;36.50;24.03;;;6.10;99.90;;;;;;5045752;28;20247;-58
2021/03/10 10:37:50;;;;;;;32.87;23.70;;;6.10;99.90;;;;;;5075153;28;20310;-59
2021/03/10 10:40:22;;;;;;;32.77;22.67;;;6.10;99.90;;;;;;5048321;28;20242;-58
2021/03/10 10:43:12;;;;;;;31.97;22.87;;;6.30;99.90;;;;;;5026112;28;20243;-58
2021/03/10 10:45:43;;;;;;;31.20;23.50;;;6.40;99.90;;;;;;5031362;28;20328;-59
2021/03/10 10:48:12;;;;;;;31.00;23.30;;;6.60;99.90;;;;;;5026583;28;20236;-59
2021/03/10 10:50:54;;;;;;;31.67;23.33;;;6.80;99.90;;;;;;5048931;28;20233;-58
2021/03/10 10:53:26;;;;;;;31.07;23.03;;;6.80;99.90;;;;;;5049062;28;20260;-59
2021/03/10 10:55:54;;;;;;;32.00;22.63;;;6.80;99.90;;;;;;5035061;28;20795;-59
2021/03/10 10:58:21;;;;;;;30.33;22.63;;;6.90;99.90;;;;;;5036866;28;20236;-57
2021/03/10 11:00:52;;;;;;;33.77;24.37;;;7.00;99.90;;;;;;5047318;28;20250;-59
2021/03/10 11:03:19;;;;;;;29.80;23.10;;;7.00;99.90;;;;;;5033557;28;20297;-54
2021/03/10 11:05:54;;;;;;;31.87;22.77;;;7.10;99.90;;;;;;5057670;28;20743;-58
2021/03/10 11:08:26;;;;;;;31.37;23.23;;;7.20;99.90;;;;;;5045056;28;20233;-56
2021/03/10 11:10:56;;;;;;;32.30;23.63;;;7.40;99.90;;;;;;5050059;28;20704;-57
2021/03/10 11:13:51;;;;;;;29.27;22.13;;;7.50;99.90;;;;;;5043234;28;20819;-58
2021/03/10 11:16:27;;;;;;;29.13;22.13;;;7.60;99.90;;;;;;5055420;28;20223;-56
2021/03/10 11:19:10;;;;;;;30.47;21.97;;;7.50;99.90;;;;;;5052142;28;20240;-59
2021/03/10 11:21:44;;;;;;;27.90;21.90;;;7.30;99.90;;;;;;5028287;28;20589;-58
2021/03/10 11:24:16;;;;;;;27.33;20.97;;;7.30;99.90;;;;;;5040691;28;20239;-59
2021/03/10 11:26:45;;;;;;;29.37;22.43;;;7.30;99.90;;;;;;5044638;28;21003;-59
2021/03/10 11:29:17;;;;;;;30.00;22.43;;;7.40;99.90;;;;;;5059949;28;20708;-58
2021/03/10 11:31:45;;;;;;;29.23;21.40;;;7.30;99.90;;;;;;5044996;28;20374;-58
2021/03/10 11:34:15;;;;;;;28.73;21.73;;;7.30;99.90;;;;;;5045191;28;20229;-58
2021/03/10 11:37:09;;;;;;;27.33;20.97;;;7.20;99.90;;;;;;5040167;28;20385;-58
2021/03/10 11:39:38;;;;;;;29.20;22.50;;;7.40;99.90;;;;;;5036995;28;20600;-58
2021/03/10 11:42:08;;;;;;;29.33;22.37;;;7.20;99.90;;;;;;5037715;28;20316;-58
2021/03/10 11:44:36;;;;;;;27.00;21.53;;;7.40;99.90;;;;;;5042427;28;20592;-58
2021/03/10 11:47:05;;;;;;;25.33;20.97;;;7.50;99.90;;;;;;5038165;28;20255;-57
2021/03/10 11:49:32;;;;;;;26.67;21.07;;;7.50;99.90;;;;;;5043091;28;20237;-57
2021/03/10 11:51:59;;;;;;;26.47;20.50;;;7.60;99.90;;;;;;5035721;28;20228;-56
2021/03/10 11:54:28;;;;;;;28.13;20.40;;;7.60;99.90;;;;;;5044169;28;20641;-57
2021/03/10 11:56:55;;;;;;;27.13;19.80;;;7.90;99.90;;;;;;5039257;28;20589;-57
2021/03/10 11:59:23;;;;;;;28.03;19.97;;;8.00;99.90;;;;;;5041777;28;20343;-55
2021/03/10 12:02:01;;;;;;;24.30;18.90;;;7.90;99.90;;;;;;5052807;28;20228;-57
2021/03/10 12:04:34;;;;;;;29.20;19.87;;;7.90;99.90;;;;;;5038746;28;20235;-56
2021/03/10 12:07:02;;;;;;;25.67;19.70;;;7.80;99.90;;;;;;5039508;28;20588;-57
2021/03/10 12:09:31;;;;;;;27.27;20.10;;;7.90;99.90;;;;;;5044557;28;20572;-56
2021/03/10 12:11:59;;;;;;;24.97;19.67;;;8.00;99.90;;;;;;5044365;28;20232;-58
2021/03/10 12:14:33;;;;;;;25.90;20.63;;;8.20;99.90;;;;;;5044979;28;20702;-57
2021/03/10 12:17:01;;;;;;;24.87;19.73;;;8.20;99.90;;;;;;5048341;28;20281;-57
2021/03/10 12:19:29;;;;;;;25.93;20.97;;;8.20;99.90;;;;;;5036445;28;20244;-56
2021/03/10 12:21:56;;;;;;;26.57;20.13;;;8.30;99.90;;;;;;5038754;28;20229;-58
2021/03/10 12:24:24;;;;;;;25.43;20.40;;;8.30;99.90;;;;;;5033156;28;20577;-57
2021/03/10 12:26:53;;;;;;;26.47;20.37;;;8.30;99.90;;;;;;5035433;28;20247;-58
2021/03/10 12:29:20;;;;;;;25.33;20.27;;;8.20;99.90;;;;;;5045166;28;20643;-58
2021/03/10 12:31:47;;;;;;;27.87;20.77;;;8.30;99.90;;;;;;5047353;28;20259;-58
2021/03/10 12:34:15;;;;;;;26.60;19.70;;;8.30;99.90;;;;;;5040453;28;20252;-58
2021/03/10 12:36:42;;;;;;;26.30;19.70;;;8.30;99.90;;;;;;5042604;28;20227;-58
2021/03/10 12:39:10;;;;;;;23.80;19.17;;;8.10;99.90;;;;;;5030187;28;20229;-57
2021/03/10 12:41:37;;;;;;;23.97;19.93;;;8.10;99.90;;;;;;5028816;28;20236;-56
2021/03/10 12:44:06;;;;;;;28.73;21.33;;;8.10;99.90;;;;;;5027567;28;20244;-57
2021/03/10 12:46:34;;;;;;;26.13;20.20;;;8.20;99.90;;;;;;5018232;28;20250;-57
2021/03/10 12:49:02;;;;;;;26.27;20.43;;;8.20;99.90;;;;;;5028176;28;20233;-58
2021/03/10 12:51:29;;;;;;;25.67;20.17;;;8.10;99.90;;;;;;5036390;28;20248;-58
2021/03/10 12:53:56;;;;;;;26.90;20.97;;;8.20;99.90;;;;;;5020465;28;20240;-58